sensor_id;sensor_type;location;lat;lon;timestamp;P1;durP1;ratioP1;P2;durP2;ratioP2
77158;SDS011;66129;45.890;13.714;2022-12-18T00:01:32;5.53;;;3.63;;
77158;SDS011;66129;45.890;13.714;2022-12-18T00:04:00;5.63;;;3.00;;
77158;SDS011;66129;45.890;13.714;2022-12-18T00:06:27;5.90;;;3.20;;
77158;SDS011;66129;45.890;13.714;2022-12-18T00:08:55;5.72;;;3.05;;
77158;SDS011;66129;45.890;13.714;2022-12-18T00:11:23;6.57;;;3.30;;
77158;SDS011;66129;45.890;13.714;2022-12-18T00:13:50;6.55;;;3.88;;
77158;SDS011;66129;45.890;13.714;2022-12-18T00:16:17;7.88;;;3.85;;
77158;SDS011;66129;45.890;13.714;2022-12-18T00:18:47;8.80;;;4.43;;
77158;SDS011;66129;45.890;13.714;2022-12-18T00:21:13;7.97;;;4.13;;
77158;SDS011;66129;45.890;13.714;2022-12-18T00:23:40;7.50;;;3.53;;
77158;SDS011;66129;45.890;13.714;2022-12-18T00:26:10;8.48;;;3.75;;
77158;SDS011;66129;45.890;13.714;2022-12-18T00:28:37;6.70;;;3.38;;
77158;SDS011;66129;45.890;13.714;2022-12-18T00:31:06;7.00;;;3.60;;
77158;SDS011;66129;45.890;13.714;2022-12-18T00:33:34;8.00;;;3.83;;
77158;SDS011;66129;45.890;13.714;2022-12-18T00:36:04;7.60;;;3.92;;
77158;SDS011;66129;45.890;13.714;2022-12-18T00:38:51;6.70;;;3.55;;
77158;SDS011;66129;45.890;13.714;2022-12-18T00:41:17;6.68;;;3.70;;
77158;SDS011;66129;45.890;13.714;2022-12-18T00:44:03;6.95;;;3.58;;
77158;SDS011;66129;45.890;13.714;2022-12-18T00:46:30;7.70;;;4.60;;
77158;SDS011;66129;45.890;13.714;2022-12-18T00:48:56;7.65;;;4.20;;
77158;SDS011;66129;45.890;13.714;2022-12-18T00:51:22;7.50;;;3.92;;
77158;SDS011;66129;45.890;13.714;2022-12-18T00:53:47;9.77;;;4.20;;
77158;SDS011;66129;45.890;13.714;2022-12-18T00:56:13;7.45;;;3.63;;
77158;SDS011;66129;45.890;13.714;2022-12-18T00:58:38;7.28;;;3.88;;
77158;SDS011;66129;45.890;13.714;2022-12-18T01:01:04;9.80;;;4.38;;
77158;SDS011;66129;45.890;13.714;2022-12-18T01:03:30;7.75;;;3.50;;
77158;SDS011;66129;45.890;13.714;2022-12-18T01:05:55;9.43;;;4.75;;
77158;SDS011;66129;45.890;13.714;2022-12-18T01:08:21;8.27;;;4.28;;
77158;SDS011;66129;45.890;13.714;2022-12-18T01:10:46;10.07;;;3.78;;
77158;SDS011;66129;45.890;13.714;2022-12-18T01:13:12;6.13;;;3.35;;
77158;SDS011;66129;45.890;13.714;2022-12-18T01:15:37;7.18;;;3.92;;
77158;SDS011;66129;45.890;13.714;2022-12-18T01:18:03;8.57;;;4.22;;
77158;SDS011;66129;45.890;13.714;2022-12-18T01:20:28;10.98;;;4.70;;
77158;SDS011;66129;45.890;13.714;2022-12-18T01:22:54;7.00;;;3.78;;
77158;SDS011;66129;45.890;13.714;2022-12-18T01:25:19;7.97;;;4.38;;
77158;SDS011;66129;45.890;13.714;2022-12-18T01:27:44;7.38;;;3.83;;
77158;SDS011;66129;45.890;13.714;2022-12-18T01:30:10;6.63;;;4.00;;
77158;SDS011;66129;45.890;13.714;2022-12-18T01:32:36;7.22;;;3.97;;
77158;SDS011;66129;45.890;13.714;2022-12-18T01:35:01;9.27;;;4.50;;
77158;SDS011;66129;45.890;13.714;2022-12-18T01:37:27;7.00;;;3.40;;
77158;SDS011;66129;45.890;13.714;2022-12-18T01:39:53;8.65;;;4.03;;
77158;SDS011;66129;45.890;13.714;2022-12-18T01:42:19;6.60;;;3.92;;
77158;SDS011;66129;45.890;13.714;2022-12-18T01:44:59;8.52;;;4.50;;
77158;SDS011;66129;45.890;13.714;2022-12-18T01:50:43;9.98;;;4.28;;
77158;SDS011;66129;45.890;13.714;2022-12-18T01:55:43;8.95;;;4.65;;
77158;SDS011;66129;45.890;13.714;2022-12-18T01:58:21;7.90;;;4.22;;
77158;SDS011;66129;45.890;13.714;2022-12-18T02:00:55;5.68;;;3.88;;
77158;SDS011;66129;45.890;13.714;2022-12-18T02:03:21;6.13;;;3.33;;
77158;SDS011;66129;45.890;13.714;2022-12-18T02:05:53;5.95;;;3.50;;
77158;SDS011;66129;45.890;13.714;2022-12-18T02:14:08;7.75;;;4.15;;
77158;SDS011;66129;45.890;13.714;2022-12-18T02:20:03;7.15;;;4.18;;
77158;SDS011;66129;45.890;13.714;2022-12-18T02:28:02;5.15;;;3.85;;
77158;SDS011;66129;45.890;13.714;2022-12-18T02:30:31;9.52;;;4.15;;
77158;SDS011;66129;45.890;13.714;2022-12-18T02:33:00;11.13;;;5.28;;
77158;SDS011;66129;45.890;13.714;2022-12-18T02:35:29;9.18;;;4.30;;
77158;SDS011;66129;45.890;13.714;2022-12-18T02:37:55;7.38;;;4.45;;
77158;SDS011;66129;45.890;13.714;2022-12-18T02:40:23;8.43;;;4.30;;
77158;SDS011;66129;45.890;13.714;2022-12-18T02:42:51;6.88;;;3.95;;
77158;SDS011;66129;45.890;13.714;2022-12-18T02:45:16;7.90;;;4.82;;
77158;SDS011;66129;45.890;13.714;2022-12-18T02:47:43;10.45;;;5.57;;
77158;SDS011;66129;45.890;13.714;2022-12-18T02:50:22;10.10;;;4.50;;
77158;SDS011;66129;45.890;13.714;2022-12-18T03:01:24;7.10;;;3.67;;
77158;SDS011;66129;45.890;13.714;2022-12-18T03:04:43;8.63;;;4.45;;
77158;SDS011;66129;45.890;13.714;2022-12-18T03:06:59;8.27;;;4.80;;
77158;SDS011;66129;45.890;13.714;2022-12-18T03:09:36;8.20;;;4.30;;
77158;SDS011;66129;45.890;13.714;2022-12-18T03:12:10;10.50;;;5.55;;
77158;SDS011;66129;45.890;13.714;2022-12-18T03:14:53;9.55;;;4.43;;
77158;SDS011;66129;45.890;13.714;2022-12-18T03:17:25;8.75;;;4.40;;
77158;SDS011;66129;45.890;13.714;2022-12-18T03:19:53;9.13;;;4.53;;
77158;SDS011;66129;45.890;13.714;2022-12-18T03:22:23;8.23;;;4.68;;
77158;SDS011;66129;45.890;13.714;2022-12-18T03:24:52;10.45;;;5.35;;
77158;SDS011;66129;45.890;13.714;2022-12-18T03:27:20;10.90;;;4.78;;
77158;SDS011;66129;45.890;13.714;2022-12-18T03:29:52;6.80;;;4.28;;
77158;SDS011;66129;45.890;13.714;2022-12-18T03:32:33;8.70;;;4.40;;
77158;SDS011;66129;45.890;13.714;2022-12-18T03:35:05;9.52;;;5.00;;
77158;SDS011;66129;45.890;13.714;2022-12-18T03:37:33;9.55;;;4.85;;
77158;SDS011;66129;45.890;13.714;2022-12-18T03:39:58;6.35;;;3.75;;
77158;SDS011;66129;45.890;13.714;2022-12-18T03:51:32;9.40;;;5.03;;
77158;SDS011;66129;45.890;13.714;2022-12-18T03:54:03;6.93;;;4.47;;
77158;SDS011;66129;45.890;13.714;2022-12-18T03:56:33;10.63;;;4.00;;
77158;SDS011;66129;45.890;13.714;2022-12-18T03:59:09;9.13;;;4.88;;
77158;SDS011;66129;45.890;13.714;2022-12-18T04:01:39;7.43;;;4.55;;
77158;SDS011;66129;45.890;13.714;2022-12-18T04:04:08;8.98;;;4.60;;
77158;SDS011;66129;45.890;13.714;2022-12-18T04:06:36;9.60;;;4.88;;
77158;SDS011;66129;45.890;13.714;2022-12-18T04:09:02;9.13;;;4.07;;
77158;SDS011;66129;45.890;13.714;2022-12-18T04:11:29;8.82;;;4.63;;
77158;SDS011;66129;45.890;13.714;2022-12-18T04:13:56;8.45;;;4.15;;
77158;SDS011;66129;45.890;13.714;2022-12-18T04:16:23;7.28;;;4.30;;
77158;SDS011;66129;45.890;13.714;2022-12-18T04:18:49;9.35;;;4.82;;
77158;SDS011;66129;45.890;13.714;2022-12-18T04:21:15;9.23;;;5.18;;
77158;SDS011;66129;45.890;13.714;2022-12-18T04:23:40;7.22;;;4.32;;
77158;SDS011;66129;45.890;13.714;2022-12-18T04:26:05;7.60;;;4.63;;
77158;SDS011;66129;45.890;13.714;2022-12-18T04:28:31;11.27;;;4.72;;
77158;SDS011;66129;45.890;13.714;2022-12-18T04:30:56;9.50;;;4.75;;
77158;SDS011;66129;45.890;13.714;2022-12-18T04:33:22;10.48;;;5.22;;
77158;SDS011;66129;45.890;13.714;2022-12-18T04:35:47;13.75;;;6.53;;
77158;SDS011;66129;45.890;13.714;2022-12-18T04:38:13;7.20;;;4.03;;
77158;SDS011;66129;45.890;13.714;2022-12-18T04:40:38;7.43;;;4.07;;
77158;SDS011;66129;45.890;13.714;2022-12-18T04:43:04;9.57;;;5.13;;
77158;SDS011;66129;45.890;13.714;2022-12-18T04:45:30;9.75;;;5.13;;
77158;SDS011;66129;45.890;13.714;2022-12-18T04:48:00;7.40;;;4.07;;
77158;SDS011;66129;45.890;13.714;2022-12-18T04:50:27;10.73;;;5.60;;
77158;SDS011;66129;45.890;13.714;2022-12-18T04:52:53;9.60;;;5.80;;
77158;SDS011;66129;45.890;13.714;2022-12-18T04:55:18;8.25;;;4.95;;
77158;SDS011;66129;45.890;13.714;2022-12-18T04:57:44;10.90;;;5.07;;
77158;SDS011;66129;45.890;13.714;2022-12-18T05:00:09;8.98;;;6.55;;
77158;SDS011;66129;45.890;13.714;2022-12-18T05:02:35;8.15;;;4.20;;
77158;SDS011;66129;45.890;13.714;2022-12-18T05:05:01;10.65;;;5.35;;
77158;SDS011;66129;45.890;13.714;2022-12-18T05:07:26;10.27;;;6.95;;
77158;SDS011;66129;45.890;13.714;2022-12-18T05:09:52;6.97;;;3.70;;
77158;SDS011;66129;45.890;13.714;2022-12-18T05:12:17;12.40;;;5.07;;
77158;SDS011;66129;45.890;13.714;2022-12-18T05:14:42;10.10;;;5.28;;
77158;SDS011;66129;45.890;13.714;2022-12-18T05:17:08;9.98;;;5.60;;
77158;SDS011;66129;45.890;13.714;2022-12-18T05:19:33;9.48;;;5.15;;
77158;SDS011;66129;45.890;13.714;2022-12-18T05:21:59;13.85;;;6.03;;
77158;SDS011;66129;45.890;13.714;2022-12-18T05:24:24;12.82;;;5.80;;
77158;SDS011;66129;45.890;13.714;2022-12-18T05:26:50;11.25;;;5.63;;
77158;SDS011;66129;45.890;13.714;2022-12-18T05:29:15;11.43;;;6.97;;
77158;SDS011;66129;45.890;13.714;2022-12-18T05:31:41;16.02;;;6.28;;
77158;SDS011;66129;45.890;13.714;2022-12-18T05:34:06;10.52;;;5.85;;
77158;SDS011;66129;45.890;13.714;2022-12-18T05:36:32;14.40;;;6.28;;
77158;SDS011;66129;45.890;13.714;2022-12-18T05:38:57;12.00;;;6.22;;
77158;SDS011;66129;45.890;13.714;2022-12-18T05:41:23;12.35;;;6.25;;
77158;SDS011;66129;45.890;13.714;2022-12-18T05:43:48;11.23;;;6.45;;
77158;SDS011;66129;45.890;13.714;2022-12-18T05:46:15;13.15;;;6.57;;
77158;SDS011;66129;45.890;13.714;2022-12-18T05:48:42;15.02;;;7.30;;
77158;SDS011;66129;45.890;13.714;2022-12-18T05:51:10;12.15;;;7.05;;
77158;SDS011;66129;45.890;13.714;2022-12-18T05:53:37;13.50;;;6.97;;
77158;SDS011;66129;45.890;13.714;2022-12-18T05:56:04;11.55;;;5.82;;
77158;SDS011;66129;45.890;13.714;2022-12-18T05:58:32;15.57;;;7.47;;
77158;SDS011;66129;45.890;13.714;2022-12-18T06:00:58;12.75;;;6.85;;
77158;SDS011;66129;45.890;13.714;2022-12-18T06:03:41;10.38;;;6.03;;
77158;SDS011;66129;45.890;13.714;2022-12-18T06:06:20;13.10;;;6.10;;
77158;SDS011;66129;45.890;13.714;2022-12-18T06:08:47;13.52;;;6.85;;
77158;SDS011;66129;45.890;13.714;2022-12-18T06:11:15;10.10;;;5.68;;
77158;SDS011;66129;45.890;13.714;2022-12-18T06:13:42;12.65;;;6.45;;
77158;SDS011;66129;45.890;13.714;2022-12-18T06:16:08;10.70;;;6.05;;
77158;SDS011;66129;45.890;13.714;2022-12-18T06:18:33;11.68;;;6.47;;
77158;SDS011;66129;45.890;13.714;2022-12-18T06:20:59;11.02;;;5.85;;
77158;SDS011;66129;45.890;13.714;2022-12-18T06:23:25;10.88;;;6.22;;
77158;SDS011;66129;45.890;13.714;2022-12-18T06:25:51;11.15;;;5.10;;
77158;SDS011;66129;45.890;13.714;2022-12-18T06:28:16;9.43;;;5.22;;
77158;SDS011;66129;45.890;13.714;2022-12-18T06:30:46;10.75;;;5.78;;
77158;SDS011;66129;45.890;13.714;2022-12-18T06:33:13;10.63;;;5.25;;
77158;SDS011;66129;45.890;13.714;2022-12-18T06:35:38;10.57;;;4.85;;
77158;SDS011;66129;45.890;13.714;2022-12-18T06:38:04;12.43;;;4.95;;
77158;SDS011;66129;45.890;13.714;2022-12-18T06:40:29;10.00;;;5.07;;
77158;SDS011;66129;45.890;13.714;2022-12-18T06:42:55;12.25;;;5.88;;
77158;SDS011;66129;45.890;13.714;2022-12-18T06:45:20;8.43;;;4.35;;
77158;SDS011;66129;45.890;13.714;2022-12-18T06:47:46;12.73;;;6.03;;
77158;SDS011;66129;45.890;13.714;2022-12-18T06:50:12;12.43;;;5.97;;
77158;SDS011;66129;45.890;13.714;2022-12-18T06:52:37;9.27;;;4.63;;
77158;SDS011;66129;45.890;13.714;2022-12-18T06:55:05;9.02;;;4.82;;
77158;SDS011;66129;45.890;13.714;2022-12-18T06:57:34;11.02;;;5.68;;
77158;SDS011;66129;45.890;13.714;2022-12-18T06:59:59;14.50;;;6.03;;
77158;SDS011;66129;45.890;13.714;2022-12-18T07:02:25;12.80;;;6.10;;
77158;SDS011;66129;45.890;13.714;2022-12-18T07:04:50;13.95;;;6.28;;
77158;SDS011;66129;45.890;13.714;2022-12-18T07:07:16;13.55;;;5.93;;
77158;SDS011;66129;45.890;13.714;2022-12-18T07:09:42;9.20;;;5.68;;
77158;SDS011;66129;45.890;13.714;2022-12-18T07:12:07;10.82;;;6.70;;
77158;SDS011;66129;45.890;13.714;2022-12-18T07:14:33;12.32;;;5.72;;
77158;SDS011;66129;45.890;13.714;2022-12-18T07:16:59;14.52;;;7.38;;
77158;SDS011;66129;45.890;13.714;2022-12-18T07:19:27;11.57;;;6.13;;
77158;SDS011;66129;45.890;13.714;2022-12-18T07:21:53;13.77;;;6.55;;
77158;SDS011;66129;45.890;13.714;2022-12-18T07:24:19;11.63;;;5.70;;
77158;SDS011;66129;45.890;13.714;2022-12-18T07:26:45;11.20;;;5.82;;
77158;SDS011;66129;45.890;13.714;2022-12-18T07:29:11;11.93;;;6.30;;
77158;SDS011;66129;45.890;13.714;2022-12-18T07:31:37;12.98;;;5.90;;
77158;SDS011;66129;45.890;13.714;2022-12-18T07:34:02;15.15;;;7.88;;
77158;SDS011;66129;45.890;13.714;2022-12-18T07:36:28;12.68;;;5.32;;
77158;SDS011;66129;45.890;13.714;2022-12-18T07:38:53;13.40;;;7.10;;
77158;SDS011;66129;45.890;13.714;2022-12-18T07:41:19;13.32;;;6.88;;
77158;SDS011;66129;45.890;13.714;2022-12-18T07:43:45;16.02;;;7.47;;
77158;SDS011;66129;45.890;13.714;2022-12-18T07:46:12;16.50;;;8.18;;
77158;SDS011;66129;45.890;13.714;2022-12-18T07:48:41;13.20;;;6.20;;
77158;SDS011;66129;45.890;13.714;2022-12-18T07:51:07;13.32;;;7.25;;
77158;SDS011;66129;45.890;13.714;2022-12-18T07:53:33;15.88;;;8.18;;
77158;SDS011;66129;45.890;13.714;2022-12-18T07:56:01;11.43;;;6.47;;
77158;SDS011;66129;45.890;13.714;2022-12-18T07:58:29;17.10;;;8.82;;
77158;SDS011;66129;45.890;13.714;2022-12-18T08:01:01;21.85;;;7.93;;
77158;SDS011;66129;45.890;13.714;2022-12-18T08:03:37;13.70;;;7.03;;
77158;SDS011;66129;45.890;13.714;2022-12-18T08:06:04;14.68;;;6.78;;
77158;SDS011;66129;45.890;13.714;2022-12-18T08:08:31;11.32;;;6.60;;
77158;SDS011;66129;45.890;13.714;2022-12-18T08:10:58;12.93;;;5.53;;
77158;SDS011;66129;45.890;13.714;2022-12-18T08:13:24;12.43;;;5.65;;
77158;SDS011;66129;45.890;13.714;2022-12-18T08:16:01;14.65;;;6.60;;
77158;SDS011;66129;45.890;13.714;2022-12-18T08:18:32;13.18;;;5.95;;
77158;SDS011;66129;45.890;13.714;2022-12-18T08:21:06;14.43;;;6.55;;
77158;SDS011;66129;45.890;13.714;2022-12-18T08:23:32;9.85;;;5.78;;
77158;SDS011;66129;45.890;13.714;2022-12-18T08:25:58;12.90;;;5.70;;
77158;SDS011;66129;45.890;13.714;2022-12-18T08:28:23;15.23;;;7.20;;
77158;SDS011;66129;45.890;13.714;2022-12-18T08:30:51;12.60;;;6.75;;
77158;SDS011;66129;45.890;13.714;2022-12-18T08:33:17;11.38;;;6.50;;
77158;SDS011;66129;45.890;13.714;2022-12-18T08:35:45;11.55;;;5.88;;
77158;SDS011;66129;45.890;13.714;2022-12-18T08:38:10;10.88;;;6.22;;
77158;SDS011;66129;45.890;13.714;2022-12-18T08:40:36;11.02;;;5.97;;
77158;SDS011;66129;45.890;13.714;2022-12-18T08:43:02;16.80;;;7.30;;
77158;SDS011;66129;45.890;13.714;2022-12-18T08:45:59;11.43;;;6.95;;
77158;SDS011;66129;45.890;13.714;2022-12-18T08:48:25;10.93;;;5.90;;
77158;SDS011;66129;45.890;13.714;2022-12-18T08:50:54;10.52;;;5.97;;
77158;SDS011;66129;45.890;13.714;2022-12-18T08:53:23;10.60;;;6.55;;
77158;SDS011;66129;45.890;13.714;2022-12-18T08:55:49;9.63;;;5.63;;
77158;SDS011;66129;45.890;13.714;2022-12-18T08:58:14;13.75;;;6.65;;
77158;SDS011;66129;45.890;13.714;2022-12-18T09:00:40;12.07;;;5.97;;
77158;SDS011;66129;45.890;13.714;2022-12-18T09:03:10;10.40;;;5.15;;
77158;SDS011;66129;45.890;13.714;2022-12-18T09:05:47;9.27;;;5.88;;
77158;SDS011;66129;45.890;13.714;2022-12-18T09:08:13;10.02;;;5.55;;
77158;SDS011;66129;45.890;13.714;2022-12-18T09:10:47;8.95;;;5.03;;
77158;SDS011;66129;45.890;13.714;2022-12-18T09:13:14;10.68;;;5.25;;
77158;SDS011;66129;45.890;13.714;2022-12-18T09:15:41;11.27;;;6.05;;
77158;SDS011;66129;45.890;13.714;2022-12-18T09:18:08;9.35;;;4.97;;
77158;SDS011;66129;45.890;13.714;2022-12-18T09:20:35;11.77;;;6.30;;
77158;SDS011;66129;45.890;13.714;2022-12-18T09:23:01;10.82;;;5.72;;
77158;SDS011;66129;45.890;13.714;2022-12-18T09:25:28;10.93;;;5.72;;
77158;SDS011;66129;45.890;13.714;2022-12-18T09:27:57;10.82;;;6.10;;
77158;SDS011;66129;45.890;13.714;2022-12-18T09:30:27;10.48;;;6.05;;
77158;SDS011;66129;45.890;13.714;2022-12-18T09:32:52;10.38;;;5.60;;
77158;SDS011;66129;45.890;13.714;2022-12-18T09:35:18;9.18;;;4.97;;
77158;SDS011;66129;45.890;13.714;2022-12-18T09:37:43;9.00;;;4.60;;
77158;SDS011;66129;45.890;13.714;2022-12-18T09:40:18;10.65;;;5.60;;
77158;SDS011;66129;45.890;13.714;2022-12-18T09:42:47;9.02;;;5.78;;
77158;SDS011;66129;45.890;13.714;2022-12-18T09:45:21;9.25;;;5.82;;
77158;SDS011;66129;45.890;13.714;2022-12-18T09:47:48;12.60;;;6.28;;
77158;SDS011;66129;45.890;13.714;2022-12-18T09:52:42;11.40;;;6.30;;
77158;SDS011;66129;45.890;13.714;2022-12-18T09:57:57;10.85;;;5.70;;
77158;SDS011;66129;45.890;13.714;2022-12-18T10:00:37;11.85;;;5.85;;
77158;SDS011;66129;45.890;13.714;2022-12-18T10:03:08;11.07;;;5.63;;
77158;SDS011;66129;45.890;13.714;2022-12-18T10:10:52;11.43;;;6.78;;
77158;SDS011;66129;45.890;13.714;2022-12-18T10:13:26;9.48;;;5.00;;
77158;SDS011;66129;45.890;13.714;2022-12-18T10:16:21;9.70;;;5.70;;
77158;SDS011;66129;45.890;13.714;2022-12-18T10:24:35;8.38;;;5.25;;
77158;SDS011;66129;45.890;13.714;2022-12-18T10:27:26;12.90;;;5.85;;
77158;SDS011;66129;45.890;13.714;2022-12-18T10:29:53;12.73;;;6.10;;
77158;SDS011;66129;45.890;13.714;2022-12-18T10:32:26;8.40;;;4.88;;
77158;SDS011;66129;45.890;13.714;2022-12-18T10:34:56;11.35;;;6.30;;
77158;SDS011;66129;45.890;13.714;2022-12-18T10:37:24;11.60;;;5.95;;
77158;SDS011;66129;45.890;13.714;2022-12-18T10:40:11;12.40;;;6.10;;
77158;SDS011;66129;45.890;13.714;2022-12-18T10:42:38;10.23;;;5.57;;
77158;SDS011;66129;45.890;13.714;2022-12-18T10:45:10;12.48;;;6.25;;
77158;SDS011;66129;45.890;13.714;2022-12-18T10:47:43;9.45;;;6.05;;
77158;SDS011;66129;45.890;13.714;2022-12-18T10:50:18;12.93;;;6.55;;
77158;SDS011;66129;45.890;13.714;2022-12-18T10:52:53;13.73;;;7.13;;
77158;SDS011;66129;45.890;13.714;2022-12-18T10:55:20;11.13;;;6.57;;
77158;SDS011;66129;45.890;13.714;2022-12-18T10:57:45;14.57;;;8.27;;
77158;SDS011;66129;45.890;13.714;2022-12-18T11:00:24;11.88;;;6.80;;
77158;SDS011;66129;45.890;13.714;2022-12-18T11:02:52;11.50;;;7.30;;
77158;SDS011;66129;45.890;13.714;2022-12-18T11:05:34;12.77;;;8.10;;
77158;SDS011;66129;45.890;13.714;2022-12-18T11:08:02;14.30;;;7.63;;
77158;SDS011;66129;45.890;13.714;2022-12-18T11:10:32;11.57;;;6.55;;
77158;SDS011;66129;45.890;13.714;2022-12-18T11:13:15;11.20;;;5.97;;
77158;SDS011;66129;45.890;13.714;2022-12-18T11:15:43;11.45;;;5.85;;
77158;SDS011;66129;45.890;13.714;2022-12-18T11:18:29;12.13;;;6.43;;
77158;SDS011;66129;45.890;13.714;2022-12-18T11:21:07;10.05;;;5.47;;
77158;SDS011;66129;45.890;13.714;2022-12-18T11:26:02;10.77;;;6.05;;
77158;SDS011;66129;45.890;13.714;2022-12-18T11:36:55;12.23;;;6.38;;
77158;SDS011;66129;45.890;13.714;2022-12-18T11:42:05;11.80;;;6.32;;
77158;SDS011;66129;45.890;13.714;2022-12-18T11:44:41;11.27;;;6.38;;
77158;SDS011;66129;45.890;13.714;2022-12-18T11:50:16;11.80;;;5.93;;
77158;SDS011;66129;45.890;13.714;2022-12-18T11:53:02;7.63;;;5.10;;
77158;SDS011;66129;45.890;13.714;2022-12-18T11:56:29;10.73;;;6.00;;
77158;SDS011;66129;45.890;13.714;2022-12-18T12:01:25;11.93;;;7.20;;
77158;SDS011;66129;45.890;13.714;2022-12-18T12:06:53;10.65;;;5.85;;
77158;SDS011;66129;45.890;13.714;2022-12-18T12:38:54;11.48;;;5.85;;
77158;SDS011;66129;45.890;13.714;2022-12-18T12:41:25;10.52;;;6.00;;
77158;SDS011;66129;45.890;13.714;2022-12-18T12:44:24;10.63;;;5.88;;
77158;SDS011;66129;45.890;13.714;2022-12-18T12:46:59;13.82;;;5.70;;
77158;SDS011;66129;45.890;13.714;2022-12-18T12:49:34;9.52;;;5.97;;
77158;SDS011;66129;45.890;13.714;2022-12-18T12:52:06;9.80;;;5.25;;
77158;SDS011;66129;45.890;13.714;2022-12-18T12:54:36;13.40;;;6.50;;
77158;SDS011;66129;45.890;13.714;2022-12-18T12:57:09;15.00;;;6.97;;
77158;SDS011;66129;45.890;13.714;2022-12-18T13:10:11;10.90;;;6.22;;
77158;SDS011;66129;45.890;13.714;2022-12-18T13:18:11;12.90;;;6.25;;
77158;SDS011;66129;45.890;13.714;2022-12-18T13:20:47;11.35;;;6.60;;
77158;SDS011;66129;45.890;13.714;2022-12-18T13:30:59;15.23;;;7.07;;
77158;SDS011;66129;45.890;13.714;2022-12-18T13:35:53;12.70;;;6.28;;
77158;SDS011;66129;45.890;13.714;2022-12-18T13:38:37;14.77;;;6.80;;
77158;SDS011;66129;45.890;13.714;2022-12-18T13:41:10;13.95;;;6.38;;
77158;SDS011;66129;45.890;13.714;2022-12-18T13:46:21;14.02;;;7.40;;
77158;SDS011;66129;45.890;13.714;2022-12-18T13:49:03;12.52;;;6.68;;
77158;SDS011;66129;45.890;13.714;2022-12-18T13:51:47;13.68;;;6.10;;
77158;SDS011;66129;45.890;13.714;2022-12-18T13:54:22;12.07;;;6.47;;
77158;SDS011;66129;45.890;13.714;2022-12-18T14:02:53;11.52;;;5.95;;
77158;SDS011;66129;45.890;13.714;2022-12-18T14:05:38;10.73;;;6.65;;
77158;SDS011;66129;45.890;13.714;2022-12-18T14:08:11;12.25;;;5.90;;
77158;SDS011;66129;45.890;13.714;2022-12-18T14:10:42;9.90;;;5.72;;
77158;SDS011;66129;45.890;13.714;2022-12-18T14:13:10;11.80;;;6.30;;
77158;SDS011;66129;45.890;13.714;2022-12-18T14:15:54;9.90;;;5.03;;
77158;SDS011;66129;45.890;13.714;2022-12-18T14:21:17;10.65;;;5.43;;
77158;SDS011;66129;45.890;13.714;2022-12-18T14:23:46;13.43;;;5.82;;
77158;SDS011;66129;45.890;13.714;2022-12-18T14:26:25;13.88;;;6.32;;
77158;SDS011;66129;45.890;13.714;2022-12-18T14:28:55;9.85;;;4.88;;
77158;SDS011;66129;45.890;13.714;2022-12-18T14:31:22;10.77;;;5.18;;
77158;SDS011;66129;45.890;13.714;2022-12-18T14:33:51;11.43;;;5.90;;
77158;SDS011;66129;45.890;13.714;2022-12-18T14:36:28;11.45;;;6.53;;
77158;SDS011;66129;45.890;13.714;2022-12-18T14:38:57;11.13;;;6.35;;
77158;SDS011;66129;45.890;13.714;2022-12-18T14:41:25;13.48;;;5.97;;
77158;SDS011;66129;45.890;13.714;2022-12-18T14:43:52;11.38;;;5.63;;
77158;SDS011;66129;45.890;13.714;2022-12-18T14:46:35;13.05;;;4.90;;
77158;SDS011;66129;45.890;13.714;2022-12-18T14:49:24;10.35;;;5.72;;
77158;SDS011;66129;45.890;13.714;2022-12-18T14:52:15;11.80;;;6.57;;
77158;SDS011;66129;45.890;13.714;2022-12-18T14:54:47;14.20;;;7.05;;
77158;SDS011;66129;45.890;13.714;2022-12-18T14:57:25;17.67;;;7.95;;
77158;SDS011;66129;45.890;13.714;2022-12-18T15:00:07;16.98;;;8.65;;
77158;SDS011;66129;45.890;13.714;2022-12-18T15:02:41;14.93;;;8.30;;
77158;SDS011;66129;45.890;13.714;2022-12-18T15:10:23;12.57;;;6.15;;
77158;SDS011;66129;45.890;13.714;2022-12-18T15:19:07;12.70;;;6.90;;
77158;SDS011;66129;45.890;13.714;2022-12-18T15:21:33;13.70;;;6.43;;
77158;SDS011;66129;45.890;13.714;2022-12-18T15:23:58;16.25;;;8.18;;
77158;SDS011;66129;45.890;13.714;2022-12-18T15:26:24;12.27;;;6.32;;
77158;SDS011;66129;45.890;13.714;2022-12-18T15:28:50;14.23;;;7.53;;
77158;SDS011;66129;45.890;13.714;2022-12-18T15:31:24;16.08;;;7.45;;
77158;SDS011;66129;45.890;13.714;2022-12-18T15:36:19;18.58;;;8.50;;
77158;SDS011;66129;45.890;13.714;2022-12-18T15:38:47;14.60;;;9.05;;
77158;SDS011;66129;45.890;13.714;2022-12-18T15:41:16;20.52;;;9.50;;
77158;SDS011;66129;45.890;13.714;2022-12-18T15:43:44;14.40;;;7.85;;
77158;SDS011;66129;45.890;13.714;2022-12-18T15:46:14;20.15;;;9.93;;
77158;SDS011;66129;45.890;13.714;2022-12-18T15:48:41;17.38;;;9.48;;
77158;SDS011;66129;45.890;13.714;2022-12-18T15:51:15;16.38;;;7.65;;
77158;SDS011;66129;45.890;13.714;2022-12-18T15:53:43;19.50;;;9.48;;
77158;SDS011;66129;45.890;13.714;2022-12-18T15:56:11;22.23;;;9.88;;
77158;SDS011;66129;45.890;13.714;2022-12-18T15:58:56;23.60;;;10.60;;
77158;SDS011;66129;45.890;13.714;2022-12-18T16:01:24;25.30;;;12.05;;
77158;SDS011;66129;45.890;13.714;2022-12-18T16:03:52;18.08;;;9.48;;
77158;SDS011;66129;45.890;13.714;2022-12-18T16:06:18;20.67;;;10.15;;
77158;SDS011;66129;45.890;13.714;2022-12-18T16:08:43;20.95;;;11.82;;
77158;SDS011;66129;45.890;13.714;2022-12-18T16:11:16;21.60;;;10.57;;
77158;SDS011;66129;45.890;13.714;2022-12-18T16:14:03;18.10;;;9.57;;
77158;SDS011;66129;45.890;13.714;2022-12-18T16:16:43;18.65;;;9.75;;
77158;SDS011;66129;45.890;13.714;2022-12-18T16:19:10;17.15;;;9.07;;
77158;SDS011;66129;45.890;13.714;2022-12-18T16:21:36;17.08;;;9.02;;
77158;SDS011;66129;45.890;13.714;2022-12-18T16:24:01;19.17;;;9.35;;
77158;SDS011;66129;45.890;13.714;2022-12-18T16:26:27;19.67;;;10.38;;
77158;SDS011;66129;45.890;13.714;2022-12-18T16:28:53;14.13;;;7.45;;
77158;SDS011;66129;45.890;13.714;2022-12-18T16:31:18;17.20;;;7.95;;
77158;SDS011;66129;45.890;13.714;2022-12-18T16:33:44;16.67;;;9.82;;
77158;SDS011;66129;45.890;13.714;2022-12-18T16:36:09;19.10;;;9.25;;
77158;SDS011;66129;45.890;13.714;2022-12-18T16:38:35;17.20;;;8.43;;
77158;SDS011;66129;45.890;13.714;2022-12-18T16:41:00;17.50;;;9.48;;
77158;SDS011;66129;45.890;13.714;2022-12-18T16:43:44;16.90;;;8.52;;
77158;SDS011;66129;45.890;13.714;2022-12-18T16:46:10;18.13;;;8.52;;
77158;SDS011;66129;45.890;13.714;2022-12-18T16:48:35;17.52;;;9.35;;
77158;SDS011;66129;45.890;13.714;2022-12-18T16:51:02;22.98;;;10.55;;
77158;SDS011;66129;45.890;13.714;2022-12-18T16:53:29;18.23;;;9.25;;
77158;SDS011;66129;45.890;13.714;2022-12-18T16:55:57;20.88;;;10.45;;
77158;SDS011;66129;45.890;13.714;2022-12-18T16:58:23;23.42;;;11.18;;
77158;SDS011;66129;45.890;13.714;2022-12-18T17:00:49;16.40;;;9.07;;
77158;SDS011;66129;45.890;13.714;2022-12-18T17:03:14;14.98;;;7.97;;
77158;SDS011;66129;45.890;13.714;2022-12-18T17:05:40;17.60;;;8.50;;
77158;SDS011;66129;45.890;13.714;2022-12-18T17:08:05;23.27;;;11.18;;
77158;SDS011;66129;45.890;13.714;2022-12-18T17:10:31;17.77;;;9.02;;
77158;SDS011;66129;45.890;13.714;2022-12-18T17:13:00;16.55;;;8.82;;
77158;SDS011;66129;45.890;13.714;2022-12-18T17:15:25;15.43;;;7.93;;
77158;SDS011;66129;45.890;13.714;2022-12-18T17:17:51;22.95;;;10.63;;